Time;durP1;ratioP1;P1;durP2;ratioP2;P2;SDS_P1;SDS_P2;PMS_P1;PMS_P2;Temp;Humidity;BMP_temperature;BMP_pressure;BME280_temperature;BME280_humidity;BME280_pressure;Samples;Min_cycle;Max_cycle;Signal;HPM_P1;HPM_P2
2022/08/09 00:01:36;;;;;;;9.10;7.00;;;;;;;15.93;100.00;99654.61;104916;1268;61374;-68
2022/08/09 00:04:04;;;;;;;9.50;5.50;;;;;;;15.89;100.00;99650.65;104933;1268;61236;-68
2022/08/09 00:06:31;;;;;;;7.60;6.40;;;;;;;15.85;100.00;99646.67;105017;1268;74941;-69
2022/08/09 00:08:57;;;;;;;8.40;6.30;;;;;;;15.81;100.00;99649.67;104976;1268;68787;-69
2022/08/09 00:11:24;;;;;;;7.60;6.30;;;;;;;15.77;100.00;99650.17;104894;1268;72361;-69
2022/08/09 00:13:51;;;;;;;8.40;6.40;;;;;;;15.74;100.00;99650.24;105245;1268;61658;-68
2022/08/09 00:16:18;;;;;;;7.20;6.00;;;;;;;15.71;100.00;99652.46;105107;1268;61364;-69
2022/08/09 00:18:44;;;;;;;10.80;6.80;;;;;;;15.67;100.00;99650.56;105234;1272;75293;-69
2022/08/09 00:21:11;;;;;;;9.40;6.70;;;;;;;15.64;100.00;99650.30;105233;1268;61256;-68
2022/08/09 00:23:37;;;;;;;8.10;6.30;;;;;;;15.62;100.00;99651.15;104924;1268;61375;-68
2022/08/09 00:26:06;;;;;;;8.90;6.70;;;;;;;15.59;100.00;99653.87;105105;1268;61294;-69
2022/08/09 00:28:33;;;;;;;7.20;6.30;;;;;;;15.56;100.00;99656.63;105259;1271;61262;-69
2022/08/09 00:31:01;;;;;;;11.10;6.00;;;;;;;15.54;100.00;99654.25;105126;1272;74814;-69
2022/08/09 00:33:28;;;;;;;9.00;6.30;;;;;;;15.52;100.00;99656.20;105249;1268;69573;-69
2022/08/09 00:35:55;;;;;;;8.70;6.60;;;;;;;15.49;100.00;99658.73;105246;1268;74604;-70
2022/08/09 00:38:22;;;;;;;8.80;5.90;;;;;;;15.46;100.00;99659.90;105291;1268;61495;-69
2022/08/09 00:40:48;;;;;;;7.20;5.80;;;;;;;15.43;100.00;99664.80;105271;1271;61368;-69
2022/08/09 00:43:15;;;;;;;8.40;6.10;;;;;;;15.37;100.00;99665.75;105167;1271;61372;-69
2022/08/09 00:45:42;;;;;;;8.90;6.20;;;;;;;15.33;100.00;99661.92;105282;1268;61316;-69
2022/08/09 00:48:08;;;;;;;8.60;6.50;;;;;;;15.31;100.00;99670.16;105322;1272;72767;-69
2022/08/09 00:50:35;;;;;;;6.80;6.00;;;;;;;15.27;100.00;99669.18;105215;1271;61293;-69
2022/08/09 00:53:02;;;;;;;8.60;5.70;;;;;;;15.25;100.00;99671.89;105231;1269;61234;-70
2022/08/09 00:55:28;;;;;;;7.10;6.00;;;;;;;15.24;100.00;99671.94;104978;1274;75388;-70
2022/08/09 00:57:55;;;;;;;6.10;5.30;;;;;;;15.22;100.00;99667.42;105238;1268;61262;-69
2022/08/09 01:00:21;;;;;;;9.20;6.20;;;;;;;15.20;100.00;99671.15;105226;1271;61260;-69
2022/08/09 01:02:52;;;;;;;9.40;6.30;;;;;;;15.19;100.00;99671.45;105249;1271;61309;-69
2022/08/09 01:05:30;;;;;;;9.30;6.30;;;;;;;15.16;100.00;99670.55;104758;1274;61949;-69
2022/08/09 01:08:33;;;;;;;8.10;7.20;;;;;;;15.15;100.00;99675.27;104906;1271;75810;-69
2022/08/09 01:11:03;;;;;;;8.60;6.60;;;;;;;15.13;100.00;99676.83;105281;1271;67521;-69
2022/08/09 01:13:35;;;;;;;9.10;6.30;;;;;;;15.11;100.00;99674.84;105224;1271;73231;-69
2022/08/09 01:16:04;;;;;;;9.40;6.20;;;;;;;15.08;100.00;99675.27;105200;1271;61362;-69
2022/08/09 01:18:33;;;;;;;8.00;6.30;;;;;;;15.06;100.00;99673.48;104979;1274;61718;-69
2022/08/09 01:21:14;;;;;;;8.60;6.60;;;;;;;15.04;100.00;99671.84;105248;1271;75447;-70
2022/08/09 01:23:54;;;;;;;10.70;6.50;;;;;;;15.04;100.00;99672.75;105231;1272;70175;-69
2022/08/09 01:26:53;;;;;;;8.80;5.90;;;;;;;15.00;100.00;99671.05;105034;1272;73688;-69
2022/08/09 01:29:27;;;;;;;7.70;6.00;;;;;;;14.98;100.00;99671.91;105325;1271;61258;-69
2022/08/09 01:31:58;;;;;;;9.50;6.30;;;;;;;14.97;100.00;99676.64;105241;1271;61288;-69
2022/08/09 01:34:29;;;;;;;9.50;5.90;;;;;;;14.96;100.00;99676.91;105068;1268;74841;-69
2022/08/09 01:36:57;;;;;;;10.10;5.80;;;;;;;14.93;100.00;99673.73;105340;1271;68891;-68
2022/08/09 01:39:26;;;;;;;5.90;4.90;;;;;;;14.90;100.00;99678.55;105012;1271;72552;-69
2022/08/09 01:41:54;;;;;;;6.80;5.70;;;;;;;14.89;100.00;99677.05;105250;1272;61262;-69
2022/08/09 01:44:22;;;;;;;5.80;5.00;;;;;;;14.87;100.00;99679.91;105225;1271;61223;-69
2022/08/09 01:46:50;;;;;;;8.50;5.60;;;;;;;14.85;100.00;99678.44;105204;1271;74939;-69
2022/08/09 01:49:19;;;;;;;7.30;5.60;;;;;;;14.83;100.00;99678.96;105239;1271;68627;-68
2022/08/09 01:51:52;;;;;;;7.20;6.00;;;;;;;14.78;100.00;99678.25;105012;1271;73317;-68
2022/08/09 01:54:22;;;;;;;8.10;5.90;;;;;;;14.75;100.00;99683.47;105229;1271;61380;-68
2022/08/09 01:56:51;;;;;;;7.80;5.70;;;;;;;14.70;100.00;99683.95;104688;1272;61464;-68
2022/08/09 01:59:19;;;;;;;8.60;6.00;;;;;;;14.66;100.00;99684.63;104907;1272;75811;-69
2022/08/09 02:01:49;;;;;;;11.20;6.60;;;;;;;14.63;100.00;99682.15;105257;1272;68744;-69
2022/08/09 02:04:18;;;;;;;10.10;6.30;;;;;;;14.60;100.00;99680.95;105261;1271;72461;-69
2022/08/09 02:09:34;;;;;;;7.60;5.60;;;;;;;14.55;100.00;99686.13;105228;1271;61287;-69
2022/08/09 02:12:04;;;;;;;7.70;5.00;;;;;;;14.54;100.00;99686.39;105311;1271;75189;-69
2022/08/09 02:14:30;;;;;;;;;;;;;;;14.54;100.00;99689.31;105268;1271;69844;-70
2022/08/09 02:16:58;;;;;;;8.30;5.30;;;;;;;14.53;100.00;99687.58;105002;1274;72655;-70
2022/08/09 02:19:25;;;;;;;6.90;5.10;;;;;;;14.52;100.00;99687.80;104974;1272;61303;-69
2022/08/09 02:21:56;;;;;;;6.00;5.30;;;;;;;14.50;100.00;99687.86;105232;1271;61298;-69
2022/08/09 02:24:34;;;;;;;10.00;5.90;;;;;;;14.50;100.00;99685.36;105331;1270;75202;-69
2022/08/09 02:27:04;;;;;;;8.90;5.10;;;;;;;14.51;100.00;99683.18;105247;1271;68251;-70
2022/08/09 02:29:36;;;;;;;6.10;5.30;;;;;;;14.53;100.00;99687.02;105256;1271;72918;-68
2022/08/09 02:32:08;;;;;;;6.70;4.70;;;;;;;14.54;100.00;99691.95;105228;1271;61267;-69
2022/08/09 02:34:37;;;;;;;10.90;6.60;;;;;;;14.55;100.00;99690.29;105322;1271;61445;-68
2022/08/09 02:37:10;;;;;;;7.90;5.10;;;;;;;14.55;100.00;99691.14;105401;1271;76446;-68
2022/08/09 02:39:42;;;;;;;6.80;5.60;;;;;;;14.56;100.00;99688.04;105251;1271;69386;-69
2022/08/09 02:42:15;;;;;;;9.80;5.40;;;;;;;14.57;100.00;99691.02;105037;1271;74516;-69
2022/08/09 02:44:50;;;;;;;8.40;5.70;;;;;;;14.57;100.00;99692.65;105291;1271;61308;-69
2022/08/09 02:47:19;;;;;;;8.20;5.70;;;;;;;14.56;100.00;99689.86;105253;1271;61243;-69
2022/08/09 02:49:53;;;;;;;5.80;5.20;;;;;;;14.55;100.00;99691.67;105234;1271;76424;-69
2022/08/09 02:52:24;;;;;;;7.10;4.60;;;;;;;14.56;100.00;99692.20;105218;1271;69776;-69
2022/08/09 02:54:52;;;;;;;6.50;5.10;;;;;;;14.54;100.00;99693.92;105198;1271;71662;-69
2022/08/09 02:57:21;;;;;;;10.20;5.90;;;;;;;14.53;100.00;99692.94;104919;1273;61419;-69
2022/08/09 02:59:48;;;;;;;6.20;5.20;;;;;;;14.53;100.00;99690.94;105338;1271;61154;-69
2022/08/09 03:02:18;;;;;;;8.10;5.90;;;;;;;14.55;100.00;99688.34;105221;1269;75624;-69
2022/08/09 03:04:46;;;;;;;6.70;5.50;;;;;;;14.57;100.00;99689.23;105308;1270;69168;-69
2022/08/09 03:07:15;;;;;;;9.30;5.40;;;;;;;14.61;100.00;99691.66;105227;1271;74034;-69
2022/08/09 03:09:44;;;;;;;10.30;6.40;;;;;;;14.64;100.00;99694.81;105356;1271;61382;-69
2022/08/09 03:12:11;;;;;;;9.70;6.90;;;;;;;14.66;100.00;99693.56;105245;1271;61276;-68
2022/08/09 03:14:42;;;;;;;7.50;6.50;;;;;;;14.69;100.00;99694.25;104933;1271;76069;-69
2022/08/09 03:17:11;;;;;;;7.70;5.80;;;;;;;14.71;100.00;99699.64;105172;1271;69045;-69
2022/08/09 03:19:39;;;;;;;9.70;6.20;;;;;;;14.74;100.00;99698.17;105372;1271;71790;-68
2022/08/09 03:22:08;;;;;;;6.50;4.90;;;;;;;14.77;100.00;99698.67;104898;1269;61277;-68
2022/08/09 03:24:35;;;;;;;7.10;5.00;;;;;;;14.78;100.00;99700.23;104815;1271;61390;-68
2022/08/09 03:27:06;;;;;;;5.80;5.10;;;;;;;14.77;100.00;99702.97;104924;1271;75194;-68
2022/08/09 03:29:34;;;;;;;6.80;5.10;;;;;;;14.77;100.00;99702.63;105223;1272;70255;-69
2022/08/09 03:32:03;;;;;;;8.30;5.60;;;;;;;14.80;100.00;99703.70;105231;1271;73222;-69
2022/08/09 03:34:30;;;;;;;9.20;5.40;;;;;;;14.81;100.00;99700.35;104971;1271;61619;-69
2022/08/09 03:36:57;;;;;;;13.20;6.40;;;;;;;14.84;100.00;99698.33;105193;1271;62023;-70
2022/08/09 03:39:24;;;;;;;9.00;5.60;;;;;;;14.88;100.00;99699.52;105289;1269;76268;-70
2022/08/09 03:41:50;;;;;;;7.60;5.80;;;;;;;14.90;100.00;99702.02;105259;1268;69143;-70
2022/08/09 03:44:17;;;;;;;9.10;5.50;;;;;;;14.92;100.00;99703.83;104914;1269;71718;-70
2022/08/09 03:46:43;;;;;;;10.70;5.80;;;;;;;14.96;100.00;99701.76;104887;1271;61272;-69
2022/08/09 03:49:11;;;;;;;7.80;5.30;;;;;;;14.99;100.00;99702.64;105229;1271;61285;-70
2022/08/09 03:51:41;;;;;;;7.50;5.80;;;;;;;15.01;100.00;99699.80;105300;1271;74652;-69
2022/08/09 03:54:10;;;;;;;9.40;6.00;;;;;;;15.03;100.00;99700.20;105250;1269;70061;-69
2022/08/09 03:56:38;;;;;;;9.70;5.40;;;;;;;15.06;100.00;99702.27;104966;1271;74252;-69
2022/08/09 03:59:04;;;;;;;7.80;5.60;;;;;;;15.09;100.00;99695.95;105279;1270;61380;-69
2022/08/09 04:01:32;;;;;;;8.00;5.60;;;;;;;15.16;100.00;99696.73;105209;1271;61255;-69
2022/08/09 04:04:02;;;;;;;9.70;5.50;;;;;;;15.22;100.00;99693.41;104966;1272;75184;-69
2022/08/09 04:06:28;;;;;;;11.20;5.90;;;;;;;15.29;100.00;99695.52;105248;1269;69247;-69
2022/08/09 04:08:55;;;;;;;7.70;5.40;;;;;;;15.37;100.00;99697.98;105194;1270;61296;-69
2022/08/09 04:11:21;;;;;;;10.90;5.20;;;;;;;15.46;100.00;99691.25;105202;1269;61368;-69
2022/08/09 04:13:47;;;;;;;8.10;4.90;;;;;;;15.54;100.00;99695.98;105232;1271;61150;-73
2022/08/09 04:16:14;;;;;;;8.10;4.90;;;;;;;15.63;100.00;99701.79;105279;1271;61259;-73
2022/08/09 04:18:41;;;;;;;7.80;5.40;;;;;;;15.70;100.00;99707.52;105342;1271;61351;-73
2022/08/09 04:21:08;;;;;;;5.30;4.60;;;;;;;15.79;100.00;99705.21;105258;1271;73182;-74
2022/08/09 04:23:35;;;;;;;11.40;5.20;;;;;;;15.92;100.00;99706.73;105048;1271;61468;-73
2022/08/09 04:26:01;;;;;;;7.00;5.20;;;;;;;16.07;100.00;99705.18;105228;1271;61291;-73
2022/08/09 04:28:28;;;;;;;9.70;5.40;;;;;;;16.44;100.00;99704.92;105189;1271;61327;-72
2022/08/09 04:30:54;;;;;;;8.50;5.40;;;;;;;16.79;100.00;99704.64;105268;1268;61230;-73
2022/08/09 04:33:21;;;;;;;9.80;6.10;;;;;;;17.88;100.00;99698.60;105225;1271;61428;-73
2022/08/09 04:35:47;;;;;;;9.80;6.20;;;;;;;18.79;100.00;99692.09;105221;1271;61389;-73
2022/08/09 04:38:14;;;;;;;10.20;6.10;;;;;;;19.00;100.00;99697.77;105087;1271;61364;-73
2022/08/09 04:40:49;;;;;;;8.50;5.40;;;;;;;18.95;100.00;99697.17;105247;1271;61485;-72
2022/08/09 04:43:17;;;;;;;8.90;5.30;;;;;;;18.84;100.00;99701.73;105212;1271;69170;-74
2022/08/09 04:45:43;;;;;;;7.30;5.20;;;;;;;19.01;100.00;99708.35;105255;1271;73169;-73
2022/08/09 04:48:11;;;;;;;6.50;5.80;;;;;;;18.94;100.00;99706.99;105204;1271;61377;-75
2022/08/09 04:50:39;;;;;;;6.60;5.00;;;;;;;19.44;100.00;99708.34;105240;1271;61285;-73
2022/08/09 04:53:06;;;;;;;7.70;6.10;;;;;;;19.88;100.00;99705.52;105244;1270;75683;-73
2022/08/09 04:55:33;;;;;;;7.30;4.90;;;;;;;20.49;98.99;99707.27;105246;1271;71352;-73
2022/08/09 04:57:59;;;;;;;8.80;4.90;;;;;;;20.54;98.38;99709.31;105256;1269;73172;-73
2022/08/09 05:00:26;;;;;;;6.80;5.00;;;;;;;20.80;96.88;99711.12;105284;1271;61249;-73
2022/08/09 05:02:52;;;;;;;7.60;6.10;;;;;;;21.51;93.33;99711.69;105232;1271;61233;-74
2022/08/09 05:05:20;;;;;;;6.10;4.80;;;;;;;22.01;90.69;99711.06;105060;1271;75632;-73
2022/08/09 05:07:47;;;;;;;7.70;4.40;;;;;;;22.74;86.38;99709.58;105040;1271;67667;-73
2022/08/09 05:10:13;;;;;;;6.10;4.60;;;;;;;23.37;83.42;99711.39;105216;1271;61268;-73
2022/08/09 05:12:40;;;;;;;7.80;4.40;;;;;;;23.93;80.22;99708.11;105268;1271;61298;-73
2022/08/09 05:15:07;;;;;;;3.90;3.60;;;;;;;24.28;76.63;99708.88;105239;1271;61263;-74
2022/08/09 05:17:34;;;;;;;7.20;3.90;;;;;;;24.71;75.11;99716.99;105078;1271;74414;-74
2022/08/09 05:20:00;;;;;;;3.80;3.40;;;;;;;25.10;71.76;99723.20;105337;1271;61387;-75
2022/08/09 05:22:27;;;;;;;5.70;3.30;;;;;;;25.37;70.11;99719.37;105294;1268;61353;-73
2022/08/09 05:24:53;;;;;;;5.50;4.20;;;;;;;25.64;68.30;99723.38;105227;1271;61157;-74
2022/08/09 05:27:20;;;;;;;5.50;4.50;;;;;;;25.61;66.45;99723.99;105216;1269;61399;-74
2022/08/09 05:29:47;;;;;;;5.90;4.10;;;;;;;25.84;65.80;99728.73;105259;1271;75237;-75
2022/08/09 05:32:14;;;;;;;5.90;3.40;;;;;;;26.11;63.62;99722.58;105321;1269;70063;-74
2022/08/09 05:34:40;;;;;;;8.90;3.50;;;;;;;26.27;62.37;99724.77;105250;1271;73528;-74
2022/08/09 05:37:07;;;;;;;4.70;3.20;;;;;;;26.40;61.62;99720.44;105028;1271;61351;-74
2022/08/09 05:39:35;;;;;;;5.00;3.80;;;;;;;26.58;60.36;99718.86;105344;1271;61550;-75
2022/08/09 05:42:02;;;;;;;5.10;4.20;;;;;;;26.76;59.50;99721.25;105031;1274;75262;-75
2022/08/09 05:44:28;;;;;;;6.30;3.70;;;;;;;26.87;58.89;99722.92;105044;1271;70176;-75
2022/08/09 05:46:55;;;;;;;7.40;4.90;;;;;;;27.05;57.71;99723.54;104956;1271;61964;-73
2022/08/09 05:49:21;;;;;;;3.80;3.20;;;;;;;27.17;56.87;99723.46;104919;1271;61276;-74
2022/08/09 05:51:48;;;;;;;4.70;3.60;;;;;;;27.05;55.60;99725.30;104733;1271;61212;-76
2022/08/09 05:54:14;;;;;;;5.00;3.00;;;;;;;27.00;55.44;99734.88;104974;1272;61388;-72
2022/08/09 05:56:41;;;;;;;3.40;3.10;;;;;;;27.19;55.36;99731.20;105003;1271;61442;-73
2022/08/09 05:59:07;;;;;;;5.00;3.20;;;;;;;27.26;54.73;99730.63;104985;1271;61373;-73
2022/08/09 06:01:34;;;;;;;4.50;3.60;;;;;;;27.45;54.44;99729.88;104985;1272;61161;-73
2022/08/09 06:04:01;;;;;;;4.40;2.50;;;;;;;27.55;53.28;99727.49;105010;1271;61463;-73
2022/08/09 06:06:28;;;;;;;6.30;2.50;;;;;;;27.47;52.38;99723.87;104992;1271;75466;-74
2022/08/09 06:08:55;;;;;;;5.30;2.50;;;;;;;27.39;51.99;99726.18;104875;1275;68695;-74
2022/08/09 06:11:21;;;;;;;8.20;2.90;;;;;;;27.36;51.38;99726.31;105005;1274;61374;-73
2022/08/09 06:13:48;;;;;;;7.70;3.00;;;;;;;27.20;48.25;99724.65;105130;1271;61399;-73
2022/08/09 06:16:14;;;;;;;3.20;2.20;;;;;;;26.73;48.27;99726.48;105264;1271;61243;-72
2022/08/09 06:18:41;;;;;;;8.30;2.50;;;;;;;26.36;48.90;99724.58;105225;1271;61310;-72
2022/08/09 06:21:07;;;;;;;4.30;2.50;;;;;;;26.21;49.26;99729.30;105258;1270;61217;-73
2022/08/09 06:23:34;;;;;;;4.70;2.50;;;;;;;26.15;49.76;99723.84;105189;1271;61157;-72
2022/08/09 06:26:00;;;;;;;6.30;2.60;;;;;;;26.19;49.65;99719.63;105257;1271;61177;-72
2022/08/09 06:28:27;;;;;;;2.90;2.10;;;;;;;26.24;49.81;99720.64;105267;1271;61307;-73
2022/08/09 06:30:53;;;;;;;5.10;2.60;;;;;;;26.31;49.89;99721.92;105209;1271;61353;-72
2022/08/09 06:33:20;;;;;;;5.60;2.70;;;;;;;26.43;49.84;99722.27;105254;1271;61297;-71
2022/08/09 06:35:47;;;;;;;4.60;2.70;;;;;;;26.50;49.76;99724.04;104969;1271;71869;-72
2022/08/09 06:38:13;;;;;;;3.00;2.10;;;;;;;26.62;49.94;99724.42;105230;1271;61309;-70
2022/08/09 06:40:40;;;;;;;6.80;2.50;;;;;;;26.64;49.14;99727.54;105216;1269;61147;-72
2022/08/09 06:43:06;;;;;;;5.90;2.60;;;;;;;26.52;48.18;99730.20;105199;1268;61284;-73
2022/08/09 06:45:33;;;;;;;3.80;2.00;;;;;;;26.31;48.45;99731.14;105201;1271;61291;-72
2022/08/09 06:47:59;;;;;;;3.90;2.40;;;;;;;26.24;48.60;99729.93;105190;1271;61381;-73
2022/08/09 06:50:26;;;;;;;5.70;2.50;;;;;;;26.17;48.95;99732.52;105226;1271;61233;-73
2022/08/09 06:52:53;;;;;;;3.40;2.20;;;;;;;26.16;48.82;99731.37;105337;1269;61176;-73
2022/08/09 06:55:20;;;;;;;4.80;2.10;;;;;;;26.08;48.14;99736.18;105222;1271;61353;-73
2022/08/09 06:57:47;;;;;;;4.00;2.40;;;;;;;25.96;48.18;99742.38;105340;1271;70665;-72
2022/08/09 07:00:14;;;;;;;4.00;2.10;;;;;;;25.89;48.21;99740.02;105254;1271;62324;-71
2022/08/09 07:02:43;;;;;;;4.60;2.10;;;;;;;25.69;47.77;99745.56;105438;1269;61362;-71
2022/08/09 07:05:09;;;;;;;4.70;2.10;;;;;;;25.54;48.16;99744.20;105245;1268;61144;-73
2022/08/09 07:07:36;;;;;;;4.90;2.60;;;;;;;25.48;48.78;99745.30;105256;1271;60108;-72
2022/08/09 07:10:03;;;;;;;6.00;2.20;;;;;;;25.45;49.11;99745.84;105241;1271;61254;-72
2022/08/09 07:12:29;;;;;;;6.10;2.00;;;;;;;25.26;49.80;99744.61;105261;1271;73719;-73
2022/08/09 07:14:56;;;;;;;2.40;2.00;;;;;;;25.03;50.09;99751.65;105249;1268;61226;-72
2022/08/09 07:17:22;;;;;;;4.10;2.10;;;;;;;24.75;50.13;99748.27;105262;1268;61193;-72
2022/08/09 07:19:49;;;;;;;5.30;2.10;;;;;;;24.55;50.57;99750.02;104928;1272;61473;-71
2022/08/09 07:22:16;;;;;;;3.90;1.70;;;;;;;24.40;51.33;99752.62;105253;1271;68603;-72
2022/08/09 07:24:42;;;;;;;4.20;2.00;;;;;;;24.34;51.75;99753.62;105045;1271;73749;-71
2022/08/09 07:27:11;;;;;;;3.00;2.10;;;;;;;24.33;52.09;99754.51;105232;1268;61489;-72
2022/08/09 07:29:38;;;;;;;5.30;1.90;;;;;;;24.26;51.81;99757.80;105251;1268;61833;-73
2022/08/09 07:32:05;;;;;;;4.00;2.10;;;;;;;24.21;52.47;99757.98;105264;1268;76273;-73
2022/08/09 07:34:33;;;;;;;3.80;1.70;;;;;;;24.19;52.31;99759.53;105225;1271;68706;-74
2022/08/09 07:37:00;;;;;;;5.70;2.00;;;;;;;24.13;52.32;99761.70;105265;1268;72735;-72
2022/08/09 07:39:26;;;;;;;3.80;1.50;;;;;;;24.09;52.04;99764.48;105261;1268;61284;-72
2022/08/09 07:41:52;;;;;;;4.30;1.70;;;;;;;24.07;52.36;99761.54;105218;1268;61261;-72
2022/08/09 07:44:19;;;;;;;5.00;2.30;;;;;;;24.10;52.14;99761.95;105207;1268;61285;-72
2022/08/09 07:46:46;;;;;;;2.60;1.40;;;;;;;24.10;52.08;99765.56;105219;1268;61285;-71
2022/08/09 07:49:13;;;;;;;2.60;1.40;;;;;;;24.11;51.71;99766.40;105152;1268;73385;-72
2022/08/09 07:51:39;;;;;;;3.30;1.50;;;;;;;24.05;51.25;99766.18;105243;1267;61358;-72
2022/08/09 07:54:06;;;;;;;2.40;1.40;;;;;;;23.98;51.20;99767.71;105293;1268;61238;-72
2022/08/09 07:56:34;;;;;;;4.60;1.20;;;;;;;24.01;51.67;99767.67;105234;1268;61365;-71
2022/08/09 07:59:00;;;;;;;4.30;1.60;;;;;;;24.10;51.29;99772.27;105234;1268;70111;-71
2022/08/09 08:01:27;;;;;;;3.90;1.50;;;;;;;24.06;50.48;99766.55;105264;1268;61272;-72
2022/08/09 08:03:53;;;;;;;5.00;1.40;;;;;;;24.00;50.63;99768.20;105245;1268;61349;-73
2022/08/09 08:06:20;;;;;;;2.30;1.20;;;;;;;23.97;51.10;99773.91;105244;1268;61336;-72
2022/08/09 08:08:46;;;;;;;1.60;1.20;;;;;;;23.98;51.09;99770.20;105247;1268;75053;-72
2022/08/09 08:11:13;;;;;;;4.10;1.80;;;;;;;24.07;51.37;99772.34;105232;1269;69338;-71
2022/08/09 08:13:40;;;;;;;9.70;3.80;;;;;;;24.16;51.60;99772.27;105197;1268;72522;-73
2022/08/09 08:16:07;;;;;;;3.10;1.50;;;;;;;24.24;50.97;99773.68;105244;1269;61388;-71
2022/08/09 08:18:33;;;;;;;2.50;1.50;;;;;;;24.28;51.33;99770.69;105229;1268;62624;-73
2022/08/09 08:21:00;;;;;;;5.20;1.80;;;;;;;24.47;52.14;99763.04;105246;1271;61061;-72
2022/08/09 08:23:26;;;;;;;4.30;1.50;;;;;;;24.63;51.23;99764.38;105240;1271;61179;-72
2022/08/09 08:25:53;;;;;;;4.60;1.60;;;;;;;24.68;51.31;99762.73;105185;1268;61301;-72
2022/08/09 08:28:20;;;;;;;2.80;2.60;;;;;;;24.81;51.21;99764.28;105073;1271;61263;-71
2022/08/09 08:30:47;;;;;;;3.10;1.40;;;;;;;24.90;50.27;99767.83;105298;1268;61298;-71
2022/08/09 08:33:15;;;;;;;2.20;1.10;;;;;;;24.93;49.93;99770.71;104970;1271;73583;-72
2022/08/09 08:35:42;;;;;;;3.60;1.10;;;;;;;25.00;49.15;99769.77;105282;1271;70154;-72
2022/08/09 08:38:09;;;;;;;3.50;1.10;;;;;;;25.12;49.39;99768.75;105148;1268;74254;-72
2022/08/09 08:40:37;;;;;;;2.00;1.10;;;;;;;25.31;49.60;99769.10;105239;1271;61224;-71
2022/08/09 08:43:04;;;;;;;2.20;1.20;;;;;;;25.61;49.85;99764.02;105237;1270;61378;-71
2022/08/09 08:45:45;;;;;;;4.60;1.30;;;;;;;25.93;48.88;99768.71;105232;1271;74213;-71
2022/08/09 08:48:12;;;;;;;2.10;1.20;;;;;;;26.22;48.55;99770.83;104958;1271;68767;-72
2022/08/09 08:50:38;;;;;;;2.50;1.10;;;;;;;26.47;48.05;99768.08;105012;1271;73653;-72
2022/08/09 08:53:06;;;;;;;1.70;1.00;;;;;;;26.61;46.98;99766.81;105225;1271;61386;-72
2022/08/09 08:55:32;;;;;;;9.10;1.80;;;;;;;26.66;45.24;99769.50;105233;1271;61282;-72
2022/08/09 08:57:59;;;;;;;4.10;1.20;;;;;;;26.59;44.15;99771.58;105206;1271;76076;-72
2022/08/09 09:00:30;;;;;;;1.60;1.00;;;;;;;26.60;44.43;99764.40;105241;1270;67901;-71
2022/08/09 09:02:59;;;;;;;3.80;1.50;;;;;;;26.73;43.89;99761.39;105251;1270;74172;-73
2022/08/09 09:05:26;;;;;;;3.40;1.30;;;;;;;26.89;44.34;99761.58;105217;1271;61388;-72
2022/08/09 09:07:53;;;;;;;6.20;1.40;;;;;;;27.05;43.91;99760.07;105274;1271;61322;-72
2022/08/09 09:10:21;;;;;;;2.50;1.20;;;;;;;26.94;43.66;99762.73;105245;1271;76209;-72
2022/08/09 09:12:49;;;;;;;2.40;1.10;;;;;;;26.74;44.19;99763.48;105003;1271;69264;-72
2022/08/09 09:15:15;;;;;;;3.50;1.00;;;;;;;26.49;44.54;99762.33;105228;1271;72630;-71
2022/08/09 09:17:42;;;;;;;5.50;1.50;;;;;;;26.25;44.19;99763.28;105233;1271;61399;-71
2022/08/09 09:20:11;;;;;;;2.00;1.20;;;;;;;26.32;44.26;99764.99;105228;1271;61297;-72
2022/08/09 09:22:58;;;;;;;2.40;1.00;;;;;;;26.52;44.17;99764.84;105319;1270;75330;-71
2022/08/09 09:25:42;;;;;;;3.20;1.20;;;;;;;26.33;43.16;99769.09;105321;1271;69572;-72
2022/08/09 09:28:11;;;;;;;2.20;1.20;;;;;;;25.94;43.08;99771.07;104957;1271;74589;-73
2022/08/09 09:30:54;;;;;;;1.40;1.00;;;;;;;25.69;43.06;99775.13;105275;1271;61352;-72
2022/08/09 09:33:36;;;;;;;2.30;1.10;;;;;;;25.53;43.10;99771.27;105224;1268;61593;-72
2022/08/09 09:36:06;;;;;;;1.60;0.90;;;;;;;25.30;42.72;99762.73;105018;1271;75289;-73
2022/08/09 09:38:51;;;;;;;1.90;1.10;;;;;;;25.17;42.87;99768.96;105273;1268;70139;-71
2022/08/09 09:41:27;;;;;;;2.30;0.90;;;;;;;24.97;42.86;99772.44;105337;1268;73301;-72
2022/08/09 09:43:59;;;;;;;0.80;0.60;;;;;;;24.79;42.88;99771.45;105235;1268;61300;-71
2022/08/09 09:46:28;;;;;;;3.20;0.80;;;;;;;24.69;42.81;99773.19;104413;1268;1350712;-72
2022/08/09 09:48:58;;;;;;;2.00;1.00;;;;;;;24.64;43.05;99771.77;105078;1271;76534;-72
2022/08/09 09:51:28;;;;;;;2.00;0.90;;;;;;;24.52;43.39;99768.57;105106;1268;69461;-72
2022/08/09 09:54:17;;;;;;;3.40;1.00;;;;;;;24.41;43.32;99776.14;105336;1268;72620;-72
2022/08/09 09:56:46;;;;;;;3.30;1.00;;;;;;;24.27;43.48;99769.83;105618;1268;61263;-71
2022/08/09 09:59:18;;;;;;;1.50;0.80;;;;;;;24.20;43.57;99771.98;105660;1268;61172;-72
2022/08/09 10:01:45;;;;;;;3.30;0.70;;;;;;;24.08;43.41;99769.06;105309;1268;75244;-71
2022/08/09 10:04:17;;;;;;;5.60;1.20;;;;;;;23.98;43.76;99765.86;105270;1268;69231;-72
2022/08/09 10:06:46;;;;;;;2.10;1.00;;;;;;;23.92;44.04;99766.67;105275;1268;73027;-73
2022/08/09 10:09:15;;;;;;;2.80;1.10;;;;;;;23.86;43.85;99765.22;105315;1268;61383;-71
2022/08/09 10:11:42;;;;;;;2.40;0.80;;;;;;;23.81;43.49;99764.23;105269;1268;61336;-72
2022/08/09 10:14:27;;;;;;;1.40;0.70;;;;;;;23.88;43.59;99761.33;105269;1268;75784;-72
2022/08/09 10:16:54;;;;;;;4.00;1.10;;;;;;;23.90;43.35;99758.17;105136;1268;68725;-72
2022/08/09 10:19:36;;;;;;;2.70;1.10;;;;;;;23.88;43.26;99758.61;105084;1271;74606;-73
2022/08/09 10:22:03;;;;;;;2.60;1.00;;;;;;;23.88;43.23;99752.79;104897;1269;61318;-72
2022/08/09 10:24:30;;;;;;;3.60;0.90;;;;;;;24.15;43.57;99746.66;105272;1268;61220;-71
2022/08/09 10:26:58;;;;;;;1.60;1.00;;;;;;;24.39;43.02;99744.41;105246;1268;74946;-73
2022/08/09 10:29:25;;;;;;;1.60;0.80;;;;;;;24.45;42.90;99746.95;105242;1268;69592;-71
2022/08/09 10:31:53;;;;;;;1.20;0.70;;;;;;;24.62;41.96;99751.23;105287;1269;73281;-72
2022/08/09 10:34:20;;;;;;;2.20;1.60;;;;;;;24.95;41.61;99745.27;105359;1271;61140;-72
2022/08/09 10:36:55;;;;;;;2.20;0.80;;;;;;;25.14;41.27;99739.59;105330;1269;61345;-73
2022/08/09 10:39:23;;;;;;;4.10;0.90;;;;;;;25.54;40.55;99734.99;105245;1270;75271;-71
2022/08/09 10:41:50;;;;;;;5.40;1.10;;;;;;;25.86;40.63;99735.39;105298;1271;69842;-73
2022/08/09 10:44:24;;;;;;;3.20;1.10;;;;;;;26.10;40.64;99735.94;105265;1271;73421;-71
2022/08/09 10:47:17;;;;;;;2.50;0.90;;;;;;;26.35;39.78;99731.73;105264;1269;61281;-73
2022/08/09 10:50:04;;;;;;;2.60;1.30;;;;;;;26.55;39.82;99732.45;105249;1269;61271;-71
2022/08/09 10:52:43;;;;;;;3.40;0.70;;;;;;;26.67;38.53;99725.42;105265;1271;74852;-72
2022/08/09 10:55:23;;;;;;;1.60;0.80;;;;;;;26.87;38.88;99727.45;105240;1271;69316;-72
2022/08/09 10:57:51;;;;;;;3.30;1.10;;;;;;;27.02;37.52;99721.46;105254;1271;73211;-74
2022/08/09 11:00:35;;;;;;;2.80;0.90;;;;;;;27.11;38.25;99722.98;105273;1270;61276;-72
2022/08/09 11:03:17;;;;;;;1.30;0.60;;;;;;;27.30;37.49;99722.38;105144;1271;61226;-72
2022/08/09 11:06:19;;;;;;;6.00;1.10;;;;;;;27.32;36.57;99721.52;105236;1268;76316;-72
2022/08/09 11:08:48;;;;;;;4.60;1.10;;;;;;;27.45;37.19;99717.90;105051;1268;69403;-72
2022/08/09 11:11:17;;;;;;;2.00;0.80;;;;;;;27.62;37.11;99718.47;105353;1268;74256;-71
2022/08/09 11:13:44;;;;;;;2.50;0.80;;;;;;;27.73;36.60;99710.61;105282;1268;61380;-71
2022/08/09 11:16:37;;;;;;;1.90;0.80;;;;;;;27.87;36.89;99712.54;105250;1268;61169;-71
2022/08/09 11:19:06;;;;;;;2.20;0.80;;;;;;;27.89;35.84;99711.96;104792;1277;75449;-71
2022/08/09 11:21:48;;;;;;;1.70;0.90;;;;;;;27.62;35.07;99711.21;104628;1277;68466;-73
2022/08/09 11:24:14;;;;;;;3.30;1.10;;;;;;;26.93;35.73;99716.94;104556;1277;73669;-71
2022/08/09 11:26:43;;;;;;;2.30;1.40;;;;;;;26.45;36.58;99717.13;104511;1278;61206;-71
2022/08/09 11:29:48;;;;;;;1.90;1.10;;;;;;;26.10;37.20;99715.34;104515;1277;61334;-72
2022/08/09 11:32:42;;;;;;;4.20;1.00;;;;;;;25.81;38.21;99715.91;104538;1278;76483;-71
2022/08/09 11:35:16;;;;;;;2.70;1.10;;;;;;;25.97;38.37;99709.06;104052;1284;68373;-72